sensor_id;sensor_type;location;lat;lon;timestamp;P1;durP1;ratioP1;P2;durP2;ratioP2
19679;SDS011;9989;48.962;9.182;2022-12-20T00:00:00;28.03;;;19.07;;
19679;SDS011;9989;48.962;9.182;2022-12-20T00:02:28;34.13;;;25.73;;
19679;SDS011;9989;48.962;9.182;2022-12-20T00:04:54;35.83;;;25.43;;
19679;SDS011;9989;48.962;9.182;2022-12-20T00:07:20;36.20;;;26.43;;
19679;SDS011;9989;48.962;9.182;2022-12-20T00:09:45;31.97;;;20.97;;
19679;SDS011;9989;48.962;9.182;2022-12-20T00:12:11;30.57;;;19.37;;
19679;SDS011;9989;48.962;9.182;2022-12-20T00:14:36;31.90;;;17.93;;
19679;SDS011;9989;48.962;9.182;2022-12-20T00:17:02;26.23;;;15.63;;
19679;SDS011;9989;48.962;9.182;2022-12-20T00:19:27;29.30;;;15.43;;
19679;SDS011;9989;48.962;9.182;2022-12-20T00:21:53;24.47;;;14.50;;
19679;SDS011;9989;48.962;9.182;2022-12-20T00:24:20;25.50;;;14.70;;
19679;SDS011;9989;48.962;9.182;2022-12-20T00:26:46;24.33;;;14.07;;
19679;SDS011;9989;48.962;9.182;2022-12-20T00:29:11;24.13;;;14.20;;
19679;SDS011;9989;48.962;9.182;2022-12-20T00:31:37;25.43;;;14.90;;
19679;SDS011;9989;48.962;9.182;2022-12-20T00:34:04;25.43;;;14.90;;
19679;SDS011;9989;48.962;9.182;2022-12-20T00:36:31;29.73;;;16.10;;
19679;SDS011;9989;48.962;9.182;2022-12-20T00:38:57;27.00;;;15.83;;
19679;SDS011;9989;48.962;9.182;2022-12-20T00:41:25;27.77;;;15.97;;
19679;SDS011;9989;48.962;9.182;2022-12-20T00:43:52;30.00;;;16.83;;
19679;SDS011;9989;48.962;9.182;2022-12-20T00:46:19;27.60;;;15.17;;
19679;SDS011;9989;48.962;9.182;2022-12-20T00:48:44;25.37;;;15.87;;
19679;SDS011;9989;48.962;9.182;2022-12-20T00:51:12;25.17;;;15.03;;
19679;SDS011;9989;48.962;9.182;2022-12-20T00:53:39;25.67;;;14.90;;
19679;SDS011;9989;48.962;9.182;2022-12-20T00:56:06;26.07;;;16.13;;
19679;SDS011;9989;48.962;9.182;2022-12-20T00:58:35;26.03;;;15.23;;
19679;SDS011;9989;48.962;9.182;2022-12-20T01:01:02;25.57;;;15.50;;
19679;SDS011;9989;48.962;9.182;2022-12-20T01:03:29;25.20;;;14.43;;
19679;SDS011;9989;48.962;9.182;2022-12-20T01:05:56;23.83;;;13.37;;
19679;SDS011;9989;48.962;9.182;2022-12-20T01:08:26;25.40;;;15.63;;
19679;SDS011;9989;48.962;9.182;2022-12-20T01:11:00;26.73;;;15.27;;
19679;SDS011;9989;48.962;9.182;2022-12-20T01:13:32;23.07;;;13.67;;
19679;SDS011;9989;48.962;9.182;2022-12-20T01:16:03;25.60;;;13.40;;
19679;SDS011;9989;48.962;9.182;2022-12-20T01:18:30;22.90;;;14.37;;
19679;SDS011;9989;48.962;9.182;2022-12-20T01:21:00;26.83;;;14.07;;
19679;SDS011;9989;48.962;9.182;2022-12-20T01:23:27;25.30;;;14.70;;
19679;SDS011;9989;48.962;9.182;2022-12-20T01:25:53;27.43;;;15.00;;
19679;SDS011;9989;48.962;9.182;2022-12-20T01:28:18;25.80;;;14.50;;
19679;SDS011;9989;48.962;9.182;2022-12-20T01:30:44;25.47;;;14.80;;
19679;SDS011;9989;48.962;9.182;2022-12-20T01:33:09;24.57;;;14.73;;
19679;SDS011;9989;48.962;9.182;2022-12-20T01:35:35;24.53;;;14.30;;
19679;SDS011;9989;48.962;9.182;2022-12-20T01:38:00;27.07;;;15.17;;
19679;SDS011;9989;48.962;9.182;2022-12-20T01:40:26;24.83;;;14.33;;
19679;SDS011;9989;48.962;9.182;2022-12-20T01:42:52;24.50;;;14.30;;
19679;SDS011;9989;48.962;9.182;2022-12-20T01:45:28;28.27;;;14.97;;
19679;SDS011;9989;48.962;9.182;2022-12-20T01:47:55;27.13;;;15.30;;
19679;SDS011;9989;48.962;9.182;2022-12-20T01:50:23;30.53;;;16.60;;
19679;SDS011;9989;48.962;9.182;2022-12-20T01:52:49;26.37;;;14.90;;
19679;SDS011;9989;48.962;9.182;2022-12-20T01:57:54;22.83;;;14.70;;
19679;SDS011;9989;48.962;9.182;2022-12-20T02:00:30;24.27;;;14.07;;
19679;SDS011;9989;48.962;9.182;2022-12-20T02:02:57;24.60;;;14.83;;
19679;SDS011;9989;48.962;9.182;2022-12-20T02:05:25;24.80;;;14.93;;
19679;SDS011;9989;48.962;9.182;2022-12-20T02:07:52;26.13;;;15.60;;
19679;SDS011;9989;48.962;9.182;2022-12-20T02:10:20;25.70;;;15.07;;
19679;SDS011;9989;48.962;9.182;2022-12-20T02:12:52;22.17;;;14.30;;
19679;SDS011;9989;48.962;9.182;2022-12-20T02:23:51;26.03;;;14.87;;
19679;SDS011;9989;48.962;9.182;2022-12-20T02:29:32;24.70;;;14.57;;
19679;SDS011;9989;48.962;9.182;2022-12-20T02:34:46;25.33;;;15.13;;
19679;SDS011;9989;48.962;9.182;2022-12-20T02:37:12;25.97;;;14.60;;
19679;SDS011;9989;48.962;9.182;2022-12-20T02:39:39;26.37;;;14.93;;
19679;SDS011;9989;48.962;9.182;2022-12-20T02:44:34;26.13;;;15.10;;
19679;SDS011;9989;48.962;9.182;2022-12-20T02:47:32;23.20;;;13.73;;
19679;SDS011;9989;48.962;9.182;2022-12-20T02:50:01;25.70;;;14.20;;
19679;SDS011;9989;48.962;9.182;2022-12-20T02:52:28;23.53;;;14.50;;
19679;SDS011;9989;48.962;9.182;2022-12-20T02:54:55;28.80;;;15.87;;
19679;SDS011;9989;48.962;9.182;2022-12-20T02:57:28;28.17;;;16.47;;
19679;SDS011;9989;48.962;9.182;2022-12-20T03:00:15;26.90;;;16.03;;
19679;SDS011;9989;48.962;9.182;2022-12-20T03:02:49;26.37;;;14.60;;
19679;SDS011;9989;48.962;9.182;2022-12-20T03:05:35;28.03;;;15.83;;
19679;SDS011;9989;48.962;9.182;2022-12-20T03:08:08;27.37;;;15.27;;
19679;SDS011;9989;48.962;9.182;2022-12-20T03:10:33;25.67;;;14.80;;
19679;SDS011;9989;48.962;9.182;2022-12-20T03:12:59;24.50;;;15.10;;
19679;SDS011;9989;48.962;9.182;2022-12-20T03:15:24;25.83;;;15.27;;
19679;SDS011;9989;48.962;9.182;2022-12-20T03:17:50;24.10;;;15.07;;
19679;SDS011;9989;48.962;9.182;2022-12-20T03:20:16;26.47;;;14.77;;
19679;SDS011;9989;48.962;9.182;2022-12-20T03:22:41;24.40;;;14.30;;
19679;SDS011;9989;48.962;9.182;2022-12-20T03:25:07;27.03;;;14.90;;
19679;SDS011;9989;48.962;9.182;2022-12-20T03:27:33;24.97;;;14.60;;
19679;SDS011;9989;48.962;9.182;2022-12-20T03:29:58;27.00;;;15.23;;
19679;SDS011;9989;48.962;9.182;2022-12-20T03:32:24;26.00;;;14.27;;
19679;SDS011;9989;48.962;9.182;2022-12-20T03:34:50;24.23;;;13.77;;
19679;SDS011;9989;48.962;9.182;2022-12-20T03:37:15;25.77;;;15.50;;
19679;SDS011;9989;48.962;9.182;2022-12-20T03:39:41;29.00;;;15.27;;
19679;SDS011;9989;48.962;9.182;2022-12-20T03:42:07;26.20;;;14.63;;
19679;SDS011;9989;48.962;9.182;2022-12-20T03:44:32;25.13;;;14.70;;
19679;SDS011;9989;48.962;9.182;2022-12-20T03:46:58;24.80;;;14.50;;
19679;SDS011;9989;48.962;9.182;2022-12-20T03:49:23;24.67;;;15.23;;
19679;SDS011;9989;48.962;9.182;2022-12-20T03:51:49;25.93;;;14.97;;
19679;SDS011;9989;48.962;9.182;2022-12-20T03:54:15;28.37;;;15.57;;
19679;SDS011;9989;48.962;9.182;2022-12-20T03:56:40;28.10;;;16.03;;
19679;SDS011;9989;48.962;9.182;2022-12-20T03:59:06;26.53;;;15.07;;
19679;SDS011;9989;48.962;9.182;2022-12-20T04:01:31;25.53;;;15.07;;
19679;SDS011;9989;48.962;9.182;2022-12-20T04:04:00;24.80;;;13.53;;
19679;SDS011;9989;48.962;9.182;2022-12-20T04:06:27;22.50;;;13.67;;
19679;SDS011;9989;48.962;9.182;2022-12-20T04:08:53;23.47;;;13.63;;
19679;SDS011;9989;48.962;9.182;2022-12-20T04:11:19;21.23;;;12.37;;
19679;SDS011;9989;48.962;9.182;2022-12-20T04:13:45;24.50;;;14.73;;
19679;SDS011;9989;48.962;9.182;2022-12-20T04:16:15;23.73;;;13.00;;
19679;SDS011;9989;48.962;9.182;2022-12-20T04:18:43;22.83;;;13.90;;
19679;SDS011;9989;48.962;9.182;2022-12-20T04:21:09;20.90;;;13.70;;
19679;SDS011;9989;48.962;9.182;2022-12-20T04:23:36;23.93;;;13.90;;
19679;SDS011;9989;48.962;9.182;2022-12-20T04:26:04;21.17;;;13.73;;
19679;SDS011;9989;48.962;9.182;2022-12-20T04:28:32;23.57;;;13.93;;
19679;SDS011;9989;48.962;9.182;2022-12-20T04:30:58;21.07;;;12.33;;
19679;SDS011;9989;48.962;9.182;2022-12-20T04:33:24;23.97;;;14.10;;
19679;SDS011;9989;48.962;9.182;2022-12-20T04:35:50;20.50;;;12.00;;
19679;SDS011;9989;48.962;9.182;2022-12-20T04:38:17;24.13;;;14.17;;
19679;SDS011;9989;48.962;9.182;2022-12-20T04:40:43;24.27;;;14.07;;
19679;SDS011;9989;48.962;9.182;2022-12-20T04:43:09;26.20;;;14.93;;
19679;SDS011;9989;48.962;9.182;2022-12-20T04:45:34;22.50;;;13.87;;
19679;SDS011;9989;48.962;9.182;2022-12-20T04:48:03;27.73;;;14.73;;
19679;SDS011;9989;48.962;9.182;2022-12-20T04:50:28;24.67;;;14.03;;
19679;SDS011;9989;48.962;9.182;2022-12-20T04:52:54;23.27;;;13.50;;
19679;SDS011;9989;48.962;9.182;2022-12-20T04:55:38;26.37;;;14.13;;
19679;SDS011;9989;48.962;9.182;2022-12-20T04:58:05;25.30;;;14.40;;
19679;SDS011;9989;48.962;9.182;2022-12-20T05:00:31;22.50;;;14.10;;
19679;SDS011;9989;48.962;9.182;2022-12-20T05:02:57;29.53;;;15.57;;
19679;SDS011;9989;48.962;9.182;2022-12-20T05:05:22;26.13;;;15.67;;
19679;SDS011;9989;48.962;9.182;2022-12-20T05:07:49;25.53;;;14.83;;
19679;SDS011;9989;48.962;9.182;2022-12-20T05:10:15;25.53;;;14.90;;
19679;SDS011;9989;48.962;9.182;2022-12-20T05:12:40;24.80;;;14.57;;
19679;SDS011;9989;48.962;9.182;2022-12-20T05:15:06;24.47;;;14.27;;
19679;SDS011;9989;48.962;9.182;2022-12-20T05:17:32;23.80;;;14.17;;
19679;SDS011;9989;48.962;9.182;2022-12-20T05:19:58;23.40;;;13.73;;
19679;SDS011;9989;48.962;9.182;2022-12-20T05:22:23;26.37;;;15.50;;
19679;SDS011;9989;48.962;9.182;2022-12-20T05:25:09;35.10;;;18.80;;
19679;SDS011;9989;48.962;9.182;2022-12-20T05:27:53;39.33;;;21.80;;
19679;SDS011;9989;48.962;9.182;2022-12-20T05:30:19;39.90;;;20.47;;
19679;SDS011;9989;48.962;9.182;2022-12-20T05:32:45;34.27;;;18.73;;
19679;SDS011;9989;48.962;9.182;2022-12-20T05:35:10;32.47;;;18.00;;
19679;SDS011;9989;48.962;9.182;2022-12-20T05:37:36;28.23;;;15.67;;
19679;SDS011;9989;48.962;9.182;2022-12-20T05:40:02;25.67;;;13.90;;
19679;SDS011;9989;48.962;9.182;2022-12-20T05:42:28;26.07;;;14.80;;
19679;SDS011;9989;48.962;9.182;2022-12-20T05:44:54;26.90;;;15.13;;
19679;SDS011;9989;48.962;9.182;2022-12-20T05:47:20;22.17;;;13.50;;
19679;SDS011;9989;48.962;9.182;2022-12-20T05:49:45;20.73;;;12.43;;
19679;SDS011;9989;48.962;9.182;2022-12-20T05:52:11;22.10;;;13.07;;
19679;SDS011;9989;48.962;9.182;2022-12-20T05:54:36;21.53;;;13.80;;
19679;SDS011;9989;48.962;9.182;2022-12-20T05:57:02;23.63;;;12.03;;
19679;SDS011;9989;48.962;9.182;2022-12-20T05:59:28;21.27;;;12.33;;
19679;SDS011;9989;48.962;9.182;2022-12-20T06:01:53;24.93;;;13.40;;
19679;SDS011;9989;48.962;9.182;2022-12-20T06:04:19;21.90;;;13.07;;
19679;SDS011;9989;48.962;9.182;2022-12-20T06:06:45;22.63;;;12.97;;
19679;SDS011;9989;48.962;9.182;2022-12-20T06:09:10;22.87;;;13.07;;
19679;SDS011;9989;48.962;9.182;2022-12-20T06:11:36;21.63;;;12.83;;
19679;SDS011;9989;48.962;9.182;2022-12-20T06:14:02;21.80;;;13.10;;
19679;SDS011;9989;48.962;9.182;2022-12-20T06:16:28;21.57;;;12.30;;
19679;SDS011;9989;48.962;9.182;2022-12-20T06:18:53;19.60;;;11.87;;
19679;SDS011;9989;48.962;9.182;2022-12-20T06:21:19;23.60;;;13.50;;
19679;SDS011;9989;48.962;9.182;2022-12-20T06:23:45;24.07;;;13.93;;
19679;SDS011;9989;48.962;9.182;2022-12-20T06:26:11;22.90;;;13.30;;
19679;SDS011;9989;48.962;9.182;2022-12-20T06:28:37;24.13;;;12.97;;
19679;SDS011;9989;48.962;9.182;2022-12-20T06:31:10;24.07;;;13.37;;
19679;SDS011;9989;48.962;9.182;2022-12-20T06:33:36;24.33;;;13.63;;
19679;SDS011;9989;48.962;9.182;2022-12-20T06:36:02;23.13;;;13.10;;
19679;SDS011;9989;48.962;9.182;2022-12-20T06:38:28;21.00;;;12.50;;
19679;SDS011;9989;48.962;9.182;2022-12-20T06:40:54;23.57;;;13.03;;
19679;SDS011;9989;48.962;9.182;2022-12-20T06:43:20;23.20;;;14.00;;
19679;SDS011;9989;48.962;9.182;2022-12-20T06:45:45;21.70;;;14.03;;
19679;SDS011;9989;48.962;9.182;2022-12-20T06:48:11;23.20;;;14.40;;
19679;SDS011;9989;48.962;9.182;2022-12-20T06:50:37;20.07;;;12.77;;
19679;SDS011;9989;48.962;9.182;2022-12-20T06:53:03;26.40;;;14.93;;
19679;SDS011;9989;48.962;9.182;2022-12-20T06:55:30;23.77;;;12.60;;
19679;SDS011;9989;48.962;9.182;2022-12-20T06:57:56;23.17;;;13.00;;
19679;SDS011;9989;48.962;9.182;2022-12-20T07:00:22;22.97;;;13.57;;
19679;SDS011;9989;48.962;9.182;2022-12-20T07:02:48;24.13;;;12.57;;
19679;SDS011;9989;48.962;9.182;2022-12-20T07:05:13;23.57;;;12.57;;
19679;SDS011;9989;48.962;9.182;2022-12-20T07:07:39;20.63;;;11.80;;
19679;SDS011;9989;48.962;9.182;2022-12-20T07:10:05;21.63;;;13.13;;
19679;SDS011;9989;48.962;9.182;2022-12-20T07:12:31;23.83;;;15.10;;
19679;SDS011;9989;48.962;9.182;2022-12-20T07:14:57;24.33;;;15.80;;
19679;SDS011;9989;48.962;9.182;2022-12-20T07:17:23;23.47;;;15.70;;
19679;SDS011;9989;48.962;9.182;2022-12-20T07:19:49;25.03;;;15.60;;
19679;SDS011;9989;48.962;9.182;2022-12-20T07:22:14;25.17;;;14.27;;
19679;SDS011;9989;48.962;9.182;2022-12-20T07:24:40;24.30;;;14.03;;
19679;SDS011;9989;48.962;9.182;2022-12-20T07:27:05;25.13;;;14.77;;
19679;SDS011;9989;48.962;9.182;2022-12-20T07:29:32;25.70;;;16.23;;
19679;SDS011;9989;48.962;9.182;2022-12-20T07:31:57;22.80;;;14.87;;
19679;SDS011;9989;48.962;9.182;2022-12-20T07:34:23;26.40;;;16.33;;
19679;SDS011;9989;48.962;9.182;2022-12-20T07:36:48;24.97;;;16.27;;
19679;SDS011;9989;48.962;9.182;2022-12-20T07:39:14;23.67;;;13.87;;
19679;SDS011;9989;48.962;9.182;2022-12-20T07:41:40;20.90;;;12.90;;
19679;SDS011;9989;48.962;9.182;2022-12-20T07:44:05;20.13;;;12.70;;
19679;SDS011;9989;48.962;9.182;2022-12-20T07:46:31;22.93;;;14.77;;
19679;SDS011;9989;48.962;9.182;2022-12-20T07:48:57;20.20;;;12.47;;
19679;SDS011;9989;48.962;9.182;2022-12-20T07:51:24;22.33;;;14.00;;
19679;SDS011;9989;48.962;9.182;2022-12-20T07:53:55;22.47;;;13.57;;
19679;SDS011;9989;48.962;9.182;2022-12-20T07:56:26;22.77;;;13.23;;
19679;SDS011;9989;48.962;9.182;2022-12-20T07:58:54;21.27;;;13.33;;
19679;SDS011;9989;48.962;9.182;2022-12-20T08:01:24;22.20;;;12.77;;
19679;SDS011;9989;48.962;9.182;2022-12-20T08:03:52;23.47;;;14.37;;
19679;SDS011;9989;48.962;9.182;2022-12-20T08:06:26;25.03;;;14.27;;
19679;SDS011;9989;48.962;9.182;2022-12-20T08:08:53;22.80;;;13.70;;
19679;SDS011;9989;48.962;9.182;2022-12-20T08:11:22;20.67;;;12.37;;
19679;SDS011;9989;48.962;9.182;2022-12-20T08:13:50;19.07;;;12.00;;
19679;SDS011;9989;48.962;9.182;2022-12-20T08:16:16;21.57;;;12.87;;
19679;SDS011;9989;48.962;9.182;2022-12-20T08:18:42;19.27;;;11.63;;
19679;SDS011;9989;48.962;9.182;2022-12-20T08:21:07;23.87;;;12.57;;
19679;SDS011;9989;48.962;9.182;2022-12-20T08:23:34;24.97;;;15.23;;
19679;SDS011;9989;48.962;9.182;2022-12-20T08:26:00;24.00;;;15.03;;
19679;SDS011;9989;48.962;9.182;2022-12-20T08:28:26;22.97;;;12.87;;
19679;SDS011;9989;48.962;9.182;2022-12-20T08:30:52;22.93;;;12.50;;
19679;SDS011;9989;48.962;9.182;2022-12-20T08:33:23;21.93;;;12.10;;
19679;SDS011;9989;48.962;9.182;2022-12-20T08:35:55;22.03;;;13.27;;
19679;SDS011;9989;48.962;9.182;2022-12-20T08:38:22;20.70;;;11.63;;
19679;SDS011;9989;48.962;9.182;2022-12-20T08:40:49;19.93;;;11.50;;
19679;SDS011;9989;48.962;9.182;2022-12-20T08:43:15;19.23;;;11.93;;
19679;SDS011;9989;48.962;9.182;2022-12-20T08:45:40;19.37;;;11.33;;
19679;SDS011;9989;48.962;9.182;2022-12-20T08:48:06;18.87;;;11.03;;
19679;SDS011;9989;48.962;9.182;2022-12-20T08:50:31;17.80;;;10.03;;
19679;SDS011;9989;48.962;9.182;2022-12-20T08:52:57;17.33;;;10.37;;
19679;SDS011;9989;48.962;9.182;2022-12-20T08:55:22;21.70;;;12.07;;
19679;SDS011;9989;48.962;9.182;2022-12-20T08:57:48;20.73;;;12.80;;
19679;SDS011;9989;48.962;9.182;2022-12-20T09:00:14;18.83;;;12.03;;
19679;SDS011;9989;48.962;9.182;2022-12-20T09:02:40;20.67;;;13.00;;
19679;SDS011;9989;48.962;9.182;2022-12-20T09:05:06;20.13;;;13.70;;
19679;SDS011;9989;48.962;9.182;2022-12-20T09:07:32;23.27;;;15.33;;
19679;SDS011;9989;48.962;9.182;2022-12-20T09:09:57;19.23;;;13.17;;
19679;SDS011;9989;48.962;9.182;2022-12-20T09:12:23;18.87;;;13.80;;
19679;SDS011;9989;48.962;9.182;2022-12-20T09:14:48;26.47;;;17.30;;
19679;SDS011;9989;48.962;9.182;2022-12-20T09:17:14;24.37;;;14.37;;
19679;SDS011;9989;48.962;9.182;2022-12-20T09:19:40;19.43;;;12.23;;
19679;SDS011;9989;48.962;9.182;2022-12-20T09:22:05;19.90;;;11.97;;
19679;SDS011;9989;48.962;9.182;2022-12-20T09:24:31;23.70;;;15.87;;
19679;SDS011;9989;48.962;9.182;2022-12-20T09:26:56;23.13;;;15.23;;
19679;SDS011;9989;48.962;9.182;2022-12-20T09:29:22;23.73;;;15.20;;
19679;SDS011;9989;48.962;9.182;2022-12-20T09:31:48;27.37;;;17.63;;
19679;SDS011;9989;48.962;9.182;2022-12-20T09:34:13;28.47;;;15.57;;
19679;SDS011;9989;48.962;9.182;2022-12-20T09:36:39;21.87;;;14.00;;
19679;SDS011;9989;48.962;9.182;2022-12-20T09:39:04;19.80;;;12.33;;
19679;SDS011;9989;48.962;9.182;2022-12-20T09:41:31;17.20;;;11.07;;
19679;SDS011;9989;48.962;9.182;2022-12-20T09:44:03;17.50;;;9.80;;
19679;SDS011;9989;48.962;9.182;2022-12-20T09:46:35;21.00;;;12.50;;
19679;SDS011;9989;48.962;9.182;2022-12-20T09:49:02;17.93;;;10.30;;
19679;SDS011;9989;48.962;9.182;2022-12-20T09:57:22;19.33;;;14.53;;
19679;SDS011;9989;48.962;9.182;2022-12-20T09:59:56;18.20;;;12.63;;
19679;SDS011;9989;48.962;9.182;2022-12-20T10:02:23;18.03;;;10.87;;
19679;SDS011;9989;48.962;9.182;2022-12-20T10:04:50;16.30;;;10.23;;
19679;SDS011;9989;48.962;9.182;2022-12-20T10:07:23;16.83;;;10.77;;
19679;SDS011;9989;48.962;9.182;2022-12-20T10:18:35;14.70;;;9.30;;
19679;SDS011;9989;48.962;9.182;2022-12-20T10:21:20;16.50;;;8.63;;
19679;SDS011;9989;48.962;9.182;2022-12-20T10:24:12;15.63;;;8.37;;
19679;SDS011;9989;48.962;9.182;2022-12-20T10:26:42;14.00;;;7.43;;
19679;SDS011;9989;48.962;9.182;2022-12-20T10:29:09;14.57;;;8.17;;
19679;SDS011;9989;48.962;9.182;2022-12-20T10:31:35;14.43;;;8.37;;
19679;SDS011;9989;48.962;9.182;2022-12-20T10:34:01;15.33;;;9.10;;
19679;SDS011;9989;48.962;9.182;2022-12-20T10:38:55;14.87;;;7.90;;
19679;SDS011;9989;48.962;9.182;2022-12-20T10:41:23;12.53;;;7.17;;
19679;SDS011;9989;48.962;9.182;2022-12-20T10:46:41;17.20;;;8.10;;
19679;SDS011;9989;48.962;9.182;2022-12-20T10:52:02;13.53;;;7.73;;
19679;SDS011;9989;48.962;9.182;2022-12-20T11:05:26;13.70;;;7.50;;
19679;SDS011;9989;48.962;9.182;2022-12-20T11:07:52;13.80;;;7.73;;
19679;SDS011;9989;48.962;9.182;2022-12-20T11:10:23;14.83;;;7.63;;
19679;SDS011;9989;48.962;9.182;2022-12-20T11:12:57;14.40;;;8.17;;
19679;SDS011;9989;48.962;9.182;2022-12-20T11:15:25;16.13;;;9.43;;
19679;SDS011;9989;48.962;9.182;2022-12-20T11:34:33;17.23;;;10.77;;
19679;SDS011;9989;48.962;9.182;2022-12-20T11:37:20;19.60;;;13.03;;
19679;SDS011;9989;48.962;9.182;2022-12-20T11:42:26;18.47;;;10.97;;
19679;SDS011;9989;48.962;9.182;2022-12-20T11:45:29;19.27;;;10.73;;
19679;SDS011;9989;48.962;9.182;2022-12-20T11:56:34;19.90;;;11.17;;
19679;SDS011;9989;48.962;9.182;2022-12-20T11:59:21;21.77;;;10.53;;
19679;SDS011;9989;48.962;9.182;2022-12-20T12:02:00;18.57;;;10.40;;
19679;SDS011;9989;48.962;9.182;2022-12-20T12:04:43;19.77;;;9.50;;
19679;SDS011;9989;48.962;9.182;2022-12-20T12:07:16;15.70;;;9.00;;
19679;SDS011;9989;48.962;9.182;2022-12-20T12:12:45;15.13;;;9.00;;
19679;SDS011;9989;48.962;9.182;2022-12-20T12:15:44;17.03;;;9.20;;
19679;SDS011;9989;48.962;9.182;2022-12-20T12:18:30;16.17;;;9.83;;
19679;SDS011;9989;48.962;9.182;2022-12-20T12:21:02;16.37;;;10.30;;
19679;SDS011;9989;48.962;9.182;2022-12-20T12:26:38;18.57;;;9.67;;
19679;SDS011;9989;48.962;9.182;2022-12-20T12:31:38;16.77;;;9.47;;
19679;SDS011;9989;48.962;9.182;2022-12-20T12:47:39;13.93;;;7.87;;
19679;SDS011;9989;48.962;9.182;2022-12-20T12:50:19;13.00;;;7.80;;
19679;SDS011;9989;48.962;9.182;2022-12-20T12:52:54;18.03;;;10.20;;
19679;SDS011;9989;48.962;9.182;2022-12-20T12:58:11;20.83;;;11.97;;
19679;SDS011;9989;48.962;9.182;2022-12-20T13:00:48;17.33;;;9.07;;
19679;SDS011;9989;48.962;9.182;2022-12-20T13:11:31;15.10;;;9.00;;
19679;SDS011;9989;48.962;9.182;2022-12-20T13:16:36;16.53;;;8.23;;
19679;SDS011;9989;48.962;9.182;2022-12-20T13:19:10;14.67;;;9.13;;
19679;SDS011;9989;48.962;9.182;2022-12-20T13:21:40;15.13;;;8.10;;
19679;SDS011;9989;48.962;9.182;2022-12-20T13:26:53;15.97;;;8.73;;
19679;SDS011;9989;48.962;9.182;2022-12-20T13:29:26;13.47;;;7.63;;
19679;SDS011;9989;48.962;9.182;2022-12-20T13:31:58;16.10;;;10.00;;
19679;SDS011;9989;48.962;9.182;2022-12-20T13:34:52;20.33;;;12.03;;
19679;SDS011;9989;48.962;9.182;2022-12-20T13:37:49;17.30;;;10.37;;
19679;SDS011;9989;48.962;9.182;2022-12-20T13:43:09;14.70;;;8.90;;
19679;SDS011;9989;48.962;9.182;2022-12-20T13:45:37;13.97;;;8.23;;
19679;SDS011;9989;48.962;9.182;2022-12-20T13:48:04;16.73;;;8.53;;
19679;SDS011;9989;48.962;9.182;2022-12-20T13:50:32;12.30;;;7.40;;
19679;SDS011;9989;48.962;9.182;2022-12-20T13:53:20;15.97;;;7.40;;
19679;SDS011;9989;48.962;9.182;2022-12-20T13:55:48;13.07;;;7.67;;
19679;SDS011;9989;48.962;9.182;2022-12-20T13:58:32;16.03;;;8.20;;
19679;SDS011;9989;48.962;9.182;2022-12-20T14:01:03;20.17;;;10.03;;
19679;SDS011;9989;48.962;9.182;2022-12-20T14:03:39;19.43;;;9.83;;
19679;SDS011;9989;48.962;9.182;2022-12-20T14:06:09;18.57;;;10.10;;
19679;SDS011;9989;48.962;9.182;2022-12-20T14:08:37;22.17;;;10.67;;
19679;SDS011;9989;48.962;9.182;2022-12-20T14:14:01;15.27;;;7.90;;
19679;SDS011;9989;48.962;9.182;2022-12-20T14:16:29;15.40;;;8.17;;
19679;SDS011;9989;48.962;9.182;2022-12-20T14:19:06;13.93;;;7.80;;
19679;SDS011;9989;48.962;9.182;2022-12-20T14:21:39;27.97;;;18.60;;
19679;SDS011;9989;48.962;9.182;2022-12-20T14:24:16;21.60;;;15.23;;
19679;SDS011;9989;48.962;9.182;2022-12-20T14:26:45;15.77;;;10.07;;
19679;SDS011;9989;48.962;9.182;2022-12-20T14:29:17;15.07;;;8.30;;
19679;SDS011;9989;48.962;9.182;2022-12-20T14:31:48;18.73;;;9.10;;
19679;SDS011;9989;48.962;9.182;2022-12-20T14:34:15;17.07;;;8.97;;
19679;SDS011;9989;48.962;9.182;2022-12-20T14:36:46;15.23;;;8.87;;
19679;SDS011;9989;48.962;9.182;2022-12-20T14:41:56;15.97;;;9.03;;
19679;SDS011;9989;48.962;9.182;2022-12-20T14:44:23;15.53;;;7.80;;
19679;SDS011;9989;48.962;9.182;2022-12-20T14:46:59;15.10;;;8.43;;
19679;SDS011;9989;48.962;9.182;2022-12-20T14:49:37;15.43;;;9.07;;
19679;SDS011;9989;48.962;9.182;2022-12-20T14:54:38;16.37;;;9.63;;
19679;SDS011;9989;48.962;9.182;2022-12-20T15:03:01;39.07;;;23.50;;
19679;SDS011;9989;48.962;9.182;2022-12-20T15:10:42;22.43;;;12.33;;
19679;SDS011;9989;48.962;9.182;2022-12-20T15:13:14;15.57;;;9.20;;
19679;SDS011;9989;48.962;9.182;2022-12-20T15:15:40;17.57;;;10.27;;
19679;SDS011;9989;48.962;9.182;2022-12-20T15:18:13;16.53;;;9.00;;
19679;SDS011;9989;48.962;9.182;2022-12-20T15:20:40;17.10;;;10.20;;
19679;SDS011;9989;48.962;9.182;2022-12-20T15:23:10;18.83;;;11.00;;
19679;SDS011;9989;48.962;9.182;2022-12-20T15:25:41;17.83;;;10.97;;
19679;SDS011;9989;48.962;9.182;2022-12-20T15:28:21;22.00;;;13.30;;
19679;SDS011;9989;48.962;9.182;2022-12-20T15:30:48;22.67;;;12.90;;
19679;SDS011;9989;48.962;9.182;2022-12-20T15:33:19;16.87;;;10.90;;
19679;SDS011;9989;48.962;9.182;2022-12-20T15:35:47;15.77;;;10.77;;
19679;SDS011;9989;48.962;9.182;2022-12-20T15:38:17;20.07;;;12.03;;
19679;SDS011;9989;48.962;9.182;2022-12-20T15:40:48;18.13;;;11.30;;
19679;SDS011;9989;48.962;9.182;2022-12-20T15:43:18;19.07;;;11.77;;
19679;SDS011;9989;48.962;9.182;2022-12-20T15:45:47;20.03;;;12.57;;
19679;SDS011;9989;48.962;9.182;2022-12-20T15:48:21;16.37;;;10.57;;
19679;SDS011;9989;48.962;9.182;2022-12-20T15:50:57;18.13;;;9.93;;
19679;SDS011;9989;48.962;9.182;2022-12-20T15:53:24;15.53;;;8.23;;
19679;SDS011;9989;48.962;9.182;2022-12-20T15:55:56;22.30;;;11.37;;
19679;SDS011;9989;48.962;9.182;2022-12-20T15:58:22;24.63;;;12.43;;
19679;SDS011;9989;48.962;9.182;2022-12-20T16:00:49;19.20;;;10.80;;
19679;SDS011;9989;48.962;9.182;2022-12-20T16:03:19;18.63;;;11.10;;
19679;SDS011;9989;48.962;9.182;2022-12-20T16:05:47;17.37;;;10.57;;
19679;SDS011;9989;48.962;9.182;2022-12-20T16:08:13;16.87;;;9.33;;
19679;SDS011;9989;48.962;9.182;2022-12-20T16:10:40;18.20;;;10.53;;
19679;SDS011;9989;48.962;9.182;2022-12-20T16:13:08;18.97;;;10.10;;
19679;SDS011;9989;48.962;9.182;2022-12-20T16:15:45;17.67;;;10.57;;
19679;SDS011;9989;48.962;9.182;2022-12-20T16:18:11;20.93;;;11.90;;
19679;SDS011;9989;48.962;9.182;2022-12-20T16:20:36;19.83;;;11.37;;
19679;SDS011;9989;48.962;9.182;2022-12-20T16:23:03;18.07;;;11.40;;
19679;SDS011;9989;48.962;9.182;2022-12-20T16:25:30;22.50;;;13.70;;
19679;SDS011;9989;48.962;9.182;2022-12-20T16:27:56;20.50;;;12.77;;
19679;SDS011;9989;48.962;9.182;2022-12-20T16:30:23;19.53;;;12.33;;
19679;SDS011;9989;48.962;9.182;2022-12-20T16:32:49;17.33;;;10.60;;
19679;SDS011;9989;48.962;9.182;2022-12-20T16:35:22;18.37;;;10.43;;
19679;SDS011;9989;48.962;9.182;2022-12-20T16:37:51;21.07;;;10.23;;
19679;SDS011;9989;48.962;9.182;2022-12-20T16:40:17;19.00;;;10.33;;
19679;SDS011;9989;48.962;9.182;2022-12-20T16:42:43;17.57;;;10.47;;
19679;SDS011;9989;48.962;9.182;2022-12-20T16:45:16;18.13;;;10.27;;
19679;SDS011;9989;48.962;9.182;2022-12-20T16:47:44;17.00;;;10.17;;
19679;SDS011;9989;48.962;9.182;2022-12-20T16:50:11;16.73;;;9.47;;
19679;SDS011;9989;48.962;9.182;2022-12-20T16:52:37;15.50;;;9.20;;
19679;SDS011;9989;48.962;9.182;2022-12-20T16:55:03;18.30;;;9.83;;
19679;SDS011;9989;48.962;9.182;2022-12-20T16:57:29;26.13;;;13.13;;
19679;SDS011;9989;48.962;9.182;2022-12-20T16:59:55;26.50;;;14.53;;
19679;SDS011;9989;48.962;9.182;2022-12-20T17:02:28;27.40;;;14.50;;
19679;SDS011;9989;48.962;9.182;2022-12-20T17:04:57;22.83;;;12.73;;